Time;durP1;ratioP1;P1;durP2;ratioP2;P2;SDS_P1;SDS_P2;PMS_P1;PMS_P2;Temp;Humidity;BMP_temperature;BMP_pressure;BME280_temperature;BME280_humidity;BME280_pressure;Samples;Min_cycle;Max_cycle;Signal;HPM_P1;HPM_P2
2023/01/17 00:01:43;;;;;;;1.90;0.70;;;3.10;99.90;;;;;;5076522;28;20048;-77
2023/01/17 00:09:53;;;;;;;1.55;0.98;;;3.20;99.90;;;;;;5060151;28;20048;-79
2023/01/17 00:12:20;;;;;;;1.45;0.90;;;3.20;99.90;;;;;;5060795;28;20050;-78
2023/01/17 00:14:47;;;;;;;2.58;0.95;;;3.20;99.90;;;;;;5076389;28;20110;-78
2023/01/17 00:17:12;;;;;;;2.78;0.90;;;3.20;99.90;;;;;;5077070;28;20064;-77
2023/01/17 01:34:15;;;;;;;1.00;0.38;;;2.40;99.90;;;;;;5077516;28;20112;-76
2023/01/17 01:36:40;;;;;;;2.35;0.50;;;2.40;99.90;;;;;;5078552;28;20074;-78
2023/01/17 01:39:07;;;;;;;0.40;0.30;;;2.30;99.90;;;;;;5080596;28;20063;-75
2023/01/17 01:41:32;;;;;;;1.38;0.40;;;2.30;99.90;;;;;;5077801;28;20055;-79
2023/01/17 01:43:58;;;;;;;0.80;0.40;;;2.30;99.90;;;;;;5080206;28;20049;-78
2023/01/17 01:46:40;;;;;;;1.25;0.32;;;2.30;99.90;;;;;;5080926;28;20055;-78
2023/01/17 01:49:23;;;;;;;2.67;0.50;;;2.20;99.90;;;;;;5062295;28;20083;-77
2023/01/17 01:51:57;;;;;;;1.60;0.30;;;2.20;99.90;;;;;;5060473;28;20122;-76
2023/01/17 01:54:30;;;;;;;0.57;0.32;;;2.20;99.90;;;;;;5064086;28;20492;-77
2023/01/17 01:57:01;;;;;;;0.55;0.40;;;2.50;99.90;;;;;;5079978;28;20072;-79
2023/01/17 01:59:29;;;;;;;1.02;0.70;;;2.10;99.90;;;;;;5079329;28;20051;-78
2023/01/17 02:01:56;;;;;;;0.70;0.43;;;2.30;99.90;;;;;;5078603;28;20040;-76
2023/01/17 02:04:24;;;;;;;1.58;0.40;;;2.20;99.90;;;;;;5063305;28;20595;-76
2023/01/17 02:07:01;;;;;;;1.35;0.43;;;2.10;99.90;;;;;;5077118;28;20121;-76
2023/01/17 02:09:27;;;;;;;0.82;0.40;;;2.10;99.90;;;;;;5078050;28;20062;-79
2023/01/17 02:11:53;;;;;;;0.85;0.70;;;2.10;99.90;;;;;;5058803;28;20483;-77
2023/01/17 02:14:21;;;;;;;2.05;0.50;;;2.10;99.90;;;;;;5077234;28;20149;-77
2023/01/17 02:17:37;;;;;;;2.13;0.60;;;2.10;99.90;;;;;;5078241;28;20109;-79
2023/01/17 02:20:37;;;;;;;0.85;0.40;;;2.10;99.90;;;;;;5056600;28;20063;-77
2023/01/17 02:23:21;;;;;;;0.47;0.40;;;2.10;99.90;;;;;;5074276;28;20056;-77
2023/01/17 02:26:09;;;;;;;3.03;0.75;;;2.10;99.90;;;;;;5079017;28;20052;-76
2023/01/17 02:29:16;;;;;;;1.25;0.60;;;2.10;99.90;;;;;;5061091;28;20055;-80
2023/01/17 02:32:02;;;;;;;2.30;0.50;;;2.10;99.90;;;;;;5101426;28;20440;-79
2023/01/17 02:34:30;;;;;;;1.48;0.40;;;2.30;99.90;;;;;;5081048;28;20052;-77
2023/01/17 02:37:16;;;;;;;2.60;0.50;;;1.90;99.90;;;;;;5076703;28;20098;-75
2023/01/17 02:39:52;;;;;;;0.70;0.40;;;1.90;99.90;;;;;;5080812;28;20056;-80
2023/01/17 02:42:25;;;;;;;0.87;0.50;;;2.00;99.90;;;;;;5074404;28;20037;-78
2023/01/17 02:44:51;;;;;;;0.35;0.30;;;2.00;99.90;;;;;;5077851;28;20295;-79
2023/01/17 02:47:26;;;;;;;0.85;0.40;;;2.00;99.90;;;;;;5079033;28;20130;-77
2023/01/17 02:49:56;;;;;;;1.98;0.65;;;1.60;99.90;;;;;;5077330;28;20054;-80
2023/01/17 02:52:24;;;;;;;0.80;0.50;;;1.60;99.90;;;;;;5079846;28;20049;-80
2023/01/17 02:55:12;;;;;;;1.83;0.68;;;1.60;99.90;;;;;;5071526;28;20048;-79
2023/01/17 02:58:03;;;;;;;0.63;0.40;;;1.50;99.90;;;;;;5077481;28;20041;-79
2023/01/17 03:00:28;;;;;;;2.92;0.68;;;1.60;99.90;;;;;;5079024;28;20108;-77
2023/01/17 03:03:09;;;;;;;0.95;0.50;;;1.90;99.90;;;;;;5077366;28;20094;-77
2023/01/17 03:05:48;;;;;;;1.98;0.40;;;1.50;99.90;;;;;;5079815;28;20037;-77
2023/01/17 03:08:15;;;;;;;1.83;1.35;;;1.50;99.90;;;;;;5078071;28;20060;-78
2023/01/17 03:10:42;;;;;;;0.45;0.30;;;1.60;99.90;;;;;;5072901;28;20546;-80
2023/01/17 03:13:07;;;;;;;1.52;0.60;;;1.60;99.90;;;;;;5078881;28;20051;-77
2023/01/17 03:15:33;;;;;;;2.58;0.60;;;1.70;99.90;;;;;;5045188;28;20049;-78
2023/01/17 03:18:06;;;;;;;4.55;1.40;;;1.60;99.90;;;;;;5078808;28;20097;-77
2023/01/17 03:20:32;;;;;;;3.38;0.82;;;1.60;99.90;;;;;;5077261;28;20056;-77
2023/01/17 03:22:57;;;;;;;5.53;1.27;;;1.80;99.90;;;;;;5077879;28;20040;-77
2023/01/17 03:25:23;;;;;;;4.18;0.60;;;1.70;99.90;;;;;;5077581;28;20055;-78
2023/01/17 03:27:49;;;;;;;3.67;0.75;;;1.70;99.90;;;;;;5077303;28;20072;-76
2023/01/17 03:30:15;;;;;;;2.47;0.80;;;1.90;99.90;;;;;;5079654;28;20516;-79
2023/01/17 03:32:40;;;;;;;2.90;0.95;;;1.70;99.90;;;;;;5059826;28;20098;-80
2023/01/17 03:35:06;;;;;;;1.98;0.70;;;1.70;99.90;;;;;;5078827;28;20482;-80
2023/01/17 03:37:32;;;;;;;3.88;0.70;;;1.80;99.90;;;;;;5077693;28;20060;-79
2023/01/17 03:39:58;;;;;;;2.17;0.50;;;1.80;99.90;;;;;;5077865;28;20045;-81
2023/01/17 03:42:23;;;;;;;1.48;0.50;;;2.10;99.90;;;;;;5076937;28;20472;-77
2023/01/17 03:44:49;;;;;;;0.43;0.35;;;2.00;99.90;;;;;;5077064;28;20071;-77
2023/01/17 03:47:15;;;;;;;0.65;0.50;;;1.80;99.90;;;;;;5077943;28;20057;-78
2023/01/17 03:49:40;;;;;;;1.60;0.60;;;2.00;99.90;;;;;;5076397;28;20053;-80
2023/01/17 03:52:07;;;;;;;1.08;0.50;;;2.40;99.90;;;;;;5061409;28;20040;-76
2023/01/17 03:54:33;;;;;;;2.78;0.57;;;1.80;99.90;;;;;;5076542;28;20052;-77
2023/01/17 03:56:58;;;;;;;2.72;0.68;;;1.80;99.90;;;;;;5110804;28;20044;-77
2023/01/17 03:59:24;;;;;;;0.85;0.45;;;1.80;99.90;;;;;;5076706;28;20135;-77
2023/01/17 04:01:50;;;;;;;3.30;0.85;;;1.80;99.90;;;;;;5076611;28;20048;-78
2023/01/17 04:04:15;;;;;;;1.50;0.50;;;1.80;99.90;;;;;;5077422;28;20055;-76
2023/01/17 04:06:41;;;;;;;0.50;0.40;;;1.80;99.90;;;;;;5076447;28;20091;-78
2023/01/17 04:09:07;;;;;;;1.75;0.70;;;1.90;99.90;;;;;;5077929;28;20051;-76
2023/01/17 04:11:33;;;;;;;1.27;0.60;;;1.70;99.90;;;;;;5075518;28;20054;-76
2023/01/17 04:13:58;;;;;;;3.55;0.82;;;1.90;99.90;;;;;;5078950;28;20450;-80
2023/01/17 04:16:30;;;;;;;1.48;0.60;;;2.00;99.90;;;;;;5059973;28;20377;-76
2023/01/17 04:18:56;;;;;;;0.98;0.60;;;1.70;99.90;;;;;;5076885;28;20052;-78
2023/01/17 04:21:22;;;;;;;1.17;0.52;;;1.70;99.90;;;;;;5077417;28;20605;-78
2023/01/17 04:23:48;;;;;;;2.78;0.75;;;2.10;99.90;;;;;;5076001;28;20066;-76
2023/01/17 04:26:13;;;;;;;4.03;0.70;;;1.70;99.90;;;;;;5076306;28;20302;-76
2023/01/17 04:28:39;;;;;;;3.55;0.70;;;1.60;99.90;;;;;;5073639;28;20147;-76
2023/01/17 04:31:05;;;;;;;3.85;0.63;;;1.60;99.90;;;;;;5074934;28;20048;-76
2023/01/17 04:33:31;;;;;;;2.38;0.60;;;1.80;99.90;;;;;;5074468;28;20055;-77
2023/01/17 04:35:56;;;;;;;1.83;0.70;;;1.50;99.90;;;;;;5058525;28;20478;-77
2023/01/17 04:38:22;;;;;;;4.30;0.85;;;1.50;99.90;;;;;;5078417;28;20098;-78
2023/01/17 04:40:49;;;;;;;3.47;0.68;;;1.50;99.90;;;;;;5058689;28;20075;-76
2023/01/17 04:43:16;;;;;;;2.00;0.65;;;1.50;99.90;;;;;;5077378;28;20084;-80
2023/01/17 04:45:41;;;;;;;1.42;0.70;;;1.40;99.90;;;;;;5075952;28;20068;-80
2023/01/17 04:48:08;;;;;;;3.60;0.65;;;1.40;99.90;;;;;;5063213;28;20392;-78
2023/01/17 04:50:34;;;;;;;2.45;0.75;;;1.70;99.90;;;;;;5050985;28;20170;-79
2023/01/17 04:53:00;;;;;;;2.45;1.30;;;1.40;99.90;;;;;;5076359;28;20492;-78
2023/01/17 04:55:26;;;;;;;5.72;0.88;;;1.40;99.90;;;;;;5077007;28;20090;-77
2023/01/17 04:57:51;;;;;;;3.17;0.70;;;1.30;99.90;;;;;;5077134;28;20072;-76
2023/01/17 05:00:17;;;;;;;8.00;0.88;;;1.30;99.90;;;;;;5059987;28;20614;-78
2023/01/17 05:02:43;;;;;;;1.52;0.43;;;1.20;99.90;;;;;;5075665;28;20117;-77
2023/01/17 05:05:09;;;;;;;1.95;0.60;;;1.20;99.90;;;;;;5077195;28;20037;-77
2023/01/17 05:07:35;;;;;;;4.72;1.02;;;1.20;99.90;;;;;;5075405;28;20044;-78
2023/01/17 05:10:01;;;;;;;4.68;0.80;;;1.10;99.90;;;;;;5075167;28;20056;-78
2023/01/17 05:12:27;;;;;;;2.47;0.70;;;1.20;99.90;;;;;;5078466;28;20145;-80
2023/01/17 05:14:52;;;;;;;1.63;0.60;;;1.70;99.90;;;;;;5062421;28;20055;-77
2023/01/17 05:17:18;;;;;;;3.17;0.60;;;1.20;99.90;;;;;;5064117;28;20049;-79
2023/01/17 05:19:44;;;;;;;1.67;0.77;;;1.20;99.90;;;;;;5062712;28;20424;-80
2023/01/17 05:22:14;;;;;;;2.70;1.23;;;1.30;99.90;;;;;;5064324;28;20036;-77
2023/01/17 05:24:43;;;;;;;2.58;0.85;;;1.20;99.90;;;;;;5078627;28;20082;-76
2023/01/17 05:27:11;;;;;;;2.92;0.65;;;1.50;99.90;;;;;;5063280;28;20048;-78
2023/01/17 05:29:37;;;;;;;1.80;1.08;;;1.00;99.90;;;;;;5064125;28;20040;-77
2023/01/17 05:32:03;;;;;;;5.25;1.08;;;1.00;99.90;;;;;;5078957;28;20052;-77
2023/01/17 05:34:29;;;;;;;2.22;0.77;;;1.00;99.90;;;;;;5080681;28;20045;-76
2023/01/17 05:36:55;;;;;;;3.20;0.90;;;1.00;99.90;;;;;;5078536;28;20060;-76
2023/01/17 05:39:21;;;;;;;2.28;0.77;;;0.90;99.90;;;;;;5080756;28;20044;-77
2023/01/17 05:41:46;;;;;;;5.63;1.00;;;0.90;99.90;;;;;;5078293;28;20048;-77
2023/01/17 05:44:14;;;;;;;2.00;0.60;;;1.70;99.90;;;;;;5063640;28;20067;-77
2023/01/17 05:46:40;;;;;;;2.35;1.02;;;0.90;99.90;;;;;;5079993;28;20048;-76
2023/01/17 05:49:06;;;;;;;3.95;0.82;;;0.80;99.90;;;;;;5079286;28;20048;-80
2023/01/17 05:51:32;;;;;;;3.10;0.77;;;0.80;99.90;;;;;;5080313;28;20049;-76
2023/01/17 05:53:58;;;;;;;2.28;0.70;;;0.80;99.90;;;;;;5061740;28;20048;-76
2023/01/17 05:56:23;;;;;;;2.40;0.85;;;0.80;99.90;;;;;;5080145;28;20135;-78
2023/01/17 05:58:49;;;;;;;8.60;0.70;;;0.80;99.90;;;;;;5078546;28;20041;-76
2023/01/17 06:01:16;;;;;;;3.10;0.80;;;0.70;99.90;;;;;;5079777;28;20048;-76
2023/01/17 06:03:42;;;;;;;2.78;0.65;;;0.70;99.90;;;;;;5081001;28;20585;-77
2023/01/17 06:06:07;;;;;;;3.40;0.77;;;0.70;99.90;;;;;;5061686;28;20040;-78
2023/01/17 06:08:33;;;;;;;3.40;0.95;;;0.70;99.90;;;;;;5077550;28;20400;-77
2023/01/17 06:10:59;;;;;;;1.73;0.93;;;0.60;99.90;;;;;;5059145;28;20048;-76
2023/01/17 06:13:24;;;;;;;3.05;0.80;;;0.60;99.90;;;;;;5077469;28;20219;-76
2023/01/17 06:15:50;;;;;;;1.48;0.60;;;0.60;99.90;;;;;;5059161;28;20056;-75
2023/01/17 06:18:17;;;;;;;3.35;0.70;;;0.60;99.90;;;;;;5079550;28;20044;-78
2023/01/17 06:20:43;;;;;;;1.83;0.73;;;0.60;99.90;;;;;;5078582;28;20051;-76
2023/01/17 06:23:13;;;;;;;4.78;1.60;;;0.50;99.90;;;;;;5079108;28;20157;-78
2023/01/17 06:25:44;;;;;;;2.55;0.80;;;0.50;99.90;;;;;;5102361;28;20044;-80
2023/01/17 06:28:12;;;;;;;3.03;0.70;;;0.80;99.90;;;;;;5078529;28;20377;-79
2023/01/17 06:30:37;;;;;;;2.42;0.68;;;0.50;99.90;;;;;;5081424;28;20080;-79
2023/01/17 06:33:04;;;;;;;2.05;0.73;;;0.50;99.90;;;;;;5077941;28;20048;-78
2023/01/17 06:35:30;;;;;;;4.78;1.05;;;0.50;99.90;;;;;;5062788;28;20045;-76
2023/01/17 06:37:58;;;;;;;5.70;1.25;;;0.50;99.90;;;;;;5078582;28;20078;-77
2023/01/17 06:40:26;;;;;;;2.42;0.80;;;0.40;99.90;;;;;;5077932;28;20064;-80
2023/01/17 06:42:53;;;;;;;3.28;0.85;;;0.80;99.90;;;;;;5108152;28;20053;-77
2023/01/17 06:45:19;;;;;;;3.42;0.70;;;0.50;99.90;;;;;;5077907;28;20040;-77
2023/01/17 06:47:45;;;;;;;4.07;0.88;;;0.50;99.90;;;;;;5079750;28;20032;-79
2023/01/17 06:50:13;;;;;;;2.67;0.73;;;0.50;99.90;;;;;;5077594;28;20108;-76
2023/01/17 06:52:40;;;;;;;1.55;0.60;;;0.40;99.90;;;;;;5079102;28;20045;-76
2023/01/17 06:55:07;;;;;;;3.00;0.90;;;0.80;99.90;;;;;;5077943;28;20053;-77
2023/01/17 06:57:33;;;;;;;3.05;1.30;;;0.40;99.90;;;;;;5078988;28;20053;-76
2023/01/17 06:59:59;;;;;;;4.88;0.82;;;0.40;99.90;;;;;;5078894;28;20051;-81
2023/01/17 07:02:25;;;;;;;2.00;1.10;;;0.40;99.90;;;;;;5077196;28;20758;-77
2023/01/17 07:04:50;;;;;;;2.25;0.68;;;0.70;99.90;;;;;;5079024;28;20054;-76
2023/01/17 07:07:16;;;;;;;4.05;0.90;;;0.40;99.90;;;;;;5077076;28;20072;-75
2023/01/17 07:09:42;;;;;;;3.47;1.13;;;0.30;99.90;;;;;;5078530;28;20037;-76
2023/01/17 07:12:08;;;;;;;4.10;1.00;;;0.30;99.90;;;;;;5043815;28;20472;-76
2023/01/17 07:14:34;;;;;;;3.03;0.80;;;0.20;99.90;;;;;;5077048;28;20142;-76
2023/01/17 07:17:00;;;;;;;2.85;0.90;;;0.30;99.90;;;;;;5041589;28;20047;-77
2023/01/17 07:19:25;;;;;;;1.50;0.70;;;0.30;99.90;;;;;;5092174;28;20075;-77
2023/01/17 07:21:52;;;;;;;4.80;1.63;;;0.30;99.90;;;;;;5061912;28;20116;-77
2023/01/17 07:24:19;;;;;;;7.80;0.93;;;0.50;99.90;;;;;;5076410;28;20099;-76
2023/01/17 07:26:49;;;;;;;4.50;0.90;;;0.60;99.90;;;;;;5078153;28;20500;-79
2023/01/17 07:29:15;;;;;;;1.27;0.57;;;0.30;99.90;;;;;;5077040;28;20052;-76
2023/01/17 07:31:41;;;;;;;1.73;0.70;;;0.40;99.90;;;;;;5075983;28;20037;-76
2023/01/17 07:34:06;;;;;;;2.60;0.80;;;0.30;99.90;;;;;;5077794;28;20055;-79
2023/01/17 07:36:32;;;;;;;1.20;0.80;;;0.30;99.90;;;;;;5059555;28;20064;-77
2023/01/17 07:38:58;;;;;;;1.65;0.65;;;0.30;99.90;;;;;;5078291;28;20040;-79
2023/01/17 07:41:24;;;;;;;1.83;0.80;;;1.50;99.90;;;;;;5059137;28;20529;-79
2023/01/17 07:43:49;;;;;;;2.47;0.68;;;0.20;99.90;;;;;;5077998;28;20155;-81
2023/01/17 07:46:16;;;;;;;2.70;0.80;;;0.30;99.90;;;;;;5076624;28;20412;-78
2023/01/17 07:48:41;;;;;;;2.97;0.55;;;0.30;99.90;;;;;;5077481;28;20059;-78
2023/01/17 07:51:08;;;;;;;2.97;0.70;;;0.30;99.90;;;;;;5077482;28;20100;-77
2023/01/17 07:53:35;;;;;;;2.22;0.80;;;0.30;99.90;;;;;;5076565;28;20055;-77
2023/01/17 07:56:06;;;;;;;2.65;0.70;;;0.30;99.90;;;;;;5077714;28;20071;-80
2023/01/17 07:58:33;;;;;;;1.48;0.77;;;0.30;99.90;;;;;;5076552;28;20043;-79
2023/01/17 08:01:02;;;;;;;2.53;0.88;;;0.30;99.90;;;;;;5077995;28;20041;-79
2023/01/17 08:03:31;;;;;;;5.28;1.13;;;0.30;99.90;;;;;;5077132;28;20104;-80
2023/01/17 08:05:57;;;;;;;3.25;1.00;;;0.40;99.90;;;;;;5076714;28;20044;-78
2023/01/17 08:08:23;;;;;;;1.80;0.80;;;0.60;99.90;;;;;;5069476;28;20393;-82
2023/01/17 08:10:50;;;;;;;4.22;0.88;;;0.40;99.90;;;;;;5072773;28;20058;-82
2023/01/17 08:13:16;;;;;;;3.55;1.02;;;0.30;99.90;;;;;;5051695;28;20037;-78
2023/01/17 08:15:42;;;;;;;3.20;0.90;;;0.30;99.90;;;;;;5074016;28;20040;-82
2023/01/17 08:18:07;;;;;;;2.13;0.82;;;0.30;99.90;;;;;;5058926;28;20044;-79
2023/01/17 08:20:33;;;;;;;3.58;1.17;;;0.80;99.90;;;;;;5075349;28;20040;-83
2023/01/17 08:22:59;;;;;;;1.45;0.70;;;0.90;99.90;;;;;;5058709;28;20044;-80
2023/01/17 08:25:26;;;;;;;3.17;1.00;;;0.40;99.90;;;;;;5076392;28;20044;-82
2023/01/17 08:27:56;;;;;;;1.70;1.02;;;0.40;99.90;;;;;;5075480;28;20048;-80
2023/01/17 08:30:22;;;;;;;1.55;0.80;;;0.70;99.90;;;;;;5076716;28;20055;-79
2023/01/17 08:32:48;;;;;;;2.05;0.77;;;0.40;99.90;;;;;;5075380;28;20083;-80
2023/01/17 08:35:14;;;;;;;2.05;0.80;;;0.40;99.90;;;;;;5076909;28;20638;-79
2023/01/17 08:37:39;;;;;;;3.35;0.80;;;0.50;99.90;;;;;;5038609;28;20100;-81
2023/01/17 08:40:07;;;;;;;4.78;1.13;;;0.80;99.90;;;;;;5070576;28;20032;-82
2023/01/17 08:42:38;;;;;;;3.72;0.85;;;0.50;99.90;;;;;;5075983;28;20048;-82
2023/01/17 08:45:05;;;;;;;6.07;0.98;;;0.60;99.90;;;;;;5074663;28;20032;-81
2023/01/17 08:47:32;;;;;;;2.22;0.90;;;0.70;99.90;;;;;;5077023;28;20154;-79
2023/01/17 08:49:59;;;;;;;1.25;0.70;;;0.80;99.90;;;;;;5074802;28;20045;-76
2023/01/17 08:52:25;;;;;;;4.82;0.88;;;0.80;99.90;;;;;;5076687;28;20072;-76
2023/01/17 08:54:52;;;;;;;0.95;0.70;;;0.80;99.90;;;;;;5077264;28;20416;-77
2023/01/17 08:57:19;;;;;;;2.05;1.10;;;0.80;99.90;;;;;;5072596;28;20048;-76
2023/01/17 08:59:45;;;;;;;5.78;0.80;;;0.80;99.90;;;;;;5076139;28;20060;-77
2023/01/17 09:02:16;;;;;;;2.97;1.00;;;0.80;99.90;;;;;;5075303;28;20092;-78
2023/01/17 09:04:46;;;;;;;2.92;1.05;;;0.90;99.90;;;;;;5076350;28;20068;-79
2023/01/17 09:07:12;;;;;;;2.50;0.90;;;0.90;99.90;;;;;;5057741;28;20311;-78
2023/01/17 09:09:38;;;;;;;1.83;0.80;;;0.90;99.90;;;;;;5076300;28;20040;-76
2023/01/17 09:12:05;;;;;;;1.10;0.68;;;0.90;99.90;;;;;;5058270;28;20048;-77
2023/01/17 09:14:31;;;;;;;2.00;0.88;;;1.00;99.90;;;;;;5072031;28;20119;-79
2023/01/17 09:16:57;;;;;;;2.42;0.93;;;1.00;99.90;;;;;;5072840;28;20563;-76
2023/01/17 09:19:22;;;;;;;1.75;1.05;;;1.00;99.90;;;;;;5066030;28;20048;-79
2023/01/17 09:21:48;;;;;;;2.92;0.80;;;1.10;99.90;;;;;;5076429;28;20530;-80
2023/01/17 09:24:14;;;;;;;3.30;0.93;;;1.10;99.90;;;;;;5057876;28;20053;-76
2023/01/17 09:26:39;;;;;;;2.78;0.90;;;1.20;99.90;;;;;;5076833;28;20057;-80
2023/01/17 09:29:05;;;;;;;2.38;1.20;;;1.20;99.90;;;;;;5057873;28;20072;-82
2023/01/17 09:31:31;;;;;;;9.50;1.70;;;1.20;99.90;;;;;;5075517;28;20048;-82
2023/01/17 09:33:57;;;;;;;1.65;1.00;;;1.30;99.90;;;;;;5059466;28;20060;-80
2023/01/17 09:36:25;;;;;;;3.60;1.30;;;1.30;99.90;;;;;;5074287;28;20053;-82
2023/01/17 09:38:58;;;;;;;6.25;1.33;;;1.30;99.90;;;;;;5077968;28;20048;-77
2023/01/17 09:41:58;;;;;;;2.88;1.35;;;1.30;99.90;;;;;;5074190;28;20048;-80
2023/01/17 09:44:37;;;;;;;3.38;1.20;;;1.30;99.90;;;;;;5073291;28;20060;-79
2023/01/17 09:47:16;;;;;;;5.55;1.55;;;1.30;99.90;;;;;;5073461;28;20079;-78
2023/01/17 09:49:44;;;;;;;6.40;1.67;;;1.40;99.90;;;;;;5066221;28;20128;-79
2023/01/17 09:52:22;;;;;;;3.83;1.40;;;1.40;99.90;;;;;;5073957;28;20044;-80
2023/01/17 09:54:49;;;;;;;4.93;1.63;;;1.50;99.90;;;;;;5075518;28;20114;-80
2023/01/17 09:57:53;;;;;;;4.22;1.50;;;1.60;99.90;;;;;;5102664;28;20615;-78
2023/01/17 10:00:40;;;;;;;4.43;1.75;;;1.60;99.90;;;;;;5071211;28;20044;-76
2023/01/17 10:03:39;;;;;;;4.53;1.70;;;1.70;99.90;;;;;;5075359;28;20059;-79
2023/01/17 10:06:30;;;;;;;3.58;1.90;;;1.80;99.90;;;;;;5078430;28;20072;-76
2023/01/17 10:09:34;;;;;;;2.55;1.55;;;2.00;99.90;;;;;;5077665;28;20661;-79
2023/01/17 10:12:21;;;;;;;2.05;1.40;;;2.10;99.90;;;;;;5077197;28;20471;-79
2023/01/17 10:15:08;;;;;;;2.47;1.30;;;2.30;99.90;;;;;;5077275;28;20048;-78
2023/01/17 10:18:02;;;;;;;3.35;1.52;;;2.40;99.90;;;;;;5079402;28;20044;-76
2023/01/17 10:20:43;;;;;;;2.95;1.10;;;2.50;99.90;;;;;;5077532;28;20052;-78
2023/01/17 10:23:16;;;;;;;2.83;1.00;;;2.60;99.90;;;;;;5097425;28;20053;-80
2023/01/17 10:25:51;;;;;;;7.15;1.80;;;2.70;99.90;;;;;;5076535;28;20051;-80
2023/01/17 10:28:23;;;;;;;3.47;1.50;;;2.90;99.90;;;;;;5077081;28;20036;-79
2023/01/17 10:31:06;;;;;;;3.80;1.40;;;3.00;99.90;;;;;;5110517;28;20086;-79
2023/01/17 10:33:45;;;;;;;1.98;1.10;;;3.20;99.90;;;;;;5064005;28;20051;-79
2023/01/17 10:36:17;;;;;;;3.45;1.20;;;3.40;99.90;;;;;;5060892;28;20055;-80
2023/01/17 10:38:46;;;;;;;3.40;1.33;;;3.60;99.90;;;;;;5058989;28;20109;-81
2023/01/17 10:41:37;;;;;;;2.58;1.30;;;3.90;99.90;;;;;;5056955;28;20052;-78
2023/01/17 10:44:26;;;;;;;3.08;1.02;;;4.00;99.90;;;;;;5096036;28;20053;-81
2023/01/17 10:47:21;;;;;;;3.15;1.20;;;4.20;99.90;;;;;;5074826;28;20078;-81
2023/01/17 10:49:52;;;;;;;3.88;1.35;;;4.40;99.90;;;;;;5063702;28;20112;-79
2023/01/17 10:52:47;;;;;;;3.78;1.30;;;4.50;99.90;;;;;;5071136;28;20448;-78
2023/01/17 10:55:45;;;;;;;2.78;1.48;;;4.60;99.90;;;;;;5062239;28;20066;-80
2023/01/17 10:58:12;;;;;;;3.38;1.10;;;4.90;99.90;;;;;;5059591;28;20083;-78
2023/01/17 11:00:53;;;;;;;4.57;1.90;;;5.00;99.90;;;;;;5075961;28;20071;-79
2023/01/17 11:03:19;;;;;;;2.42;1.20;;;5.20;99.90;;;;;;5074690;28;20496;-78
2023/01/17 11:06:19;;;;;;;1.80;1.00;;;5.30;99.90;;;;;;5074920;28;20054;-79
2023/01/17 11:08:56;;;;;;;2.90;1.00;;;5.40;99.90;;;;;;5073029;28;20065;-77
2023/01/17 11:11:30;;;;;;;2.70;1.20;;;5.60;99.90;;;;;;5076381;28;20060;-81
2023/01/17 11:14:03;;;;;;;2.00;0.90;;;5.60;99.90;;;;;;5077397;28;20056;-77
2023/01/17 11:16:30;;;;;;;2.08;1.20;;;5.60;99.90;;;;;;5077065;28;20076;-79
2023/01/17 11:19:19;;;;;;;3.42;1.30;;;5.70;99.90;;;;;;5076931;28;20044;-77
2023/01/17 11:21:54;;;;;;;3.45;1.45;;;5.60;99.90;;;;;;5078287;28;20045;-79
2023/01/17 11:24:30;;;;;;;2.97;1.15;;;5.50;99.90;;;;;;5076776;28;20455;-78
2023/01/17 11:26:56;;;;;;;4.15;1.38;;;5.30;99.90;;;;;;5076309;28;20049;-79
2023/01/17 11:29:39;;;;;;;2.42;1.25;;;4.90;99.90;;;;;;5061553;28;20082;-79
2023/01/17 11:32:27;;;;;;;3.90;1.38;;;4.50;99.90;;;;;;5073057;28;20048;-80
2023/01/17 11:35:26;;;;;;;2.92;1.40;;;4.20;99.90;;;;;;5100503;28;20108;-79
2023/01/17 11:38:16;;;;;;;3.88;1.35;;;4.00;99.90;;;;;;5066180;28;20091;-80
2023/01/17 11:40:44;;;;;;;2.40;1.30;;;3.90;99.90;;;;;;5063343;28;20041;-78
2023/01/17 11:43:19;;;;;;;3.70;1.50;;;3.80;99.90;;;;;;5111216;28;20041;-80
2023/01/17 11:45:58;;;;;;;4.40;1.40;;;3.80;99.90;;;;;;5076573;28;20105;-78
2023/01/17 11:48:24;;;;;;;3.50;1.35;;;3.80;99.90;;;;;;5063015;28;20045;-77
2023/01/17 11:50:57;;;;;;;4.10;1.30;;;3.90;99.90;;;;;;5077040;28;20148;-78
2023/01/17 11:53:28;;;;;;;4.72;1.40;;;3.90;99.90;;;;;;5076430;28;20051;-79
2023/01/17 11:56:05;;;;;;;2.78;1.30;;;4.00;99.90;;;;;;5077810;28;20105;-80
2023/01/17 11:58:34;;;;;;;2.35;1.20;;;4.00;99.90;;;;;;5076062;28;20053;-79
2023/01/17 12:01:03;;;;;;;3.70;1.58;;;4.00;99.90;;;;;;5077784;28;20095;-77
2023/01/17 12:03:52;;;;;;;2.88;1.35;;;4.00;99.90;;;;;;5076893;28;20037;-78
2023/01/17 12:06:33;;;;;;;3.55;1.17;;;4.00;99.90;;;;;;5069379;28;20044;-77
2023/01/17 12:09:08;;;;;;;1.95;1.10;;;4.00;99.90;;;;;;5077616;28;20048;-81
2023/01/17 12:14:57;;;;;;;3.92;1.20;;;3.90;99.90;;;;;;5073907;28;20467;-79
2023/01/17 12:17:34;;;;;;;2.50;1.10;;;3.90;99.90;;;;;;5095202;28;20056;-76
2023/01/17 12:20:15;;;;;;;4.28;1.23;;;4.60;99.90;;;;;;5076552;28;20145;-77
2023/01/17 12:23:07;;;;;;;3.38;1.10;;;3.80;99.90;;;;;;5075786;28;20056;-82
2023/01/17 12:25:48;;;;;;;3.85;1.08;;;3.80;99.90;;;;;;5075932;28;20117;-82
2023/01/17 12:28:36;;;;;;;2.30;1.05;;;3.80;99.90;;;;;;5109129;28;20044;-79
2023/01/17 12:31:19;;;;;;;2.65;1.35;;;3.80;99.90;;;;;;5076870;28;20059;-76
2023/01/17 12:33:54;;;;;;;3.25;1.50;;;3.90;99.90;;;;;;5075883;28;20056;-81
2023/01/17 12:36:45;;;;;;;2.40;1.42;;;3.90;99.90;;;;;;5075526;28;20040;-79
2023/01/17 12:39:13;;;;;;;4.40;1.40;;;3.80;99.90;;;;;;5076624;28;20078;-81
2023/01/17 12:42:01;;;;;;;2.90;1.17;;;4.00;99.90;;;;;;5074826;28;20045;-80
2023/01/17 12:44:58;;;;;;;2.92;1.42;;;4.00;99.90;;;;;;5076097;28;20117;-81
2023/01/17 12:47:24;;;;;;;3.95;1.20;;;4.00;99.90;;;;;;5076015;28;20174;-81
2023/01/17 12:49:53;;;;;;;2.55;1.10;;;4.10;99.90;;;;;;5075273;28;20095;-80
2023/01/17 12:52:44;;;;;;;2.40;1.30;;;4.30;99.90;;;;;;5076293;28;20048;-80
2023/01/17 12:55:19;;;;;;;3.35;1.17;;;4.50;99.90;;;;;;5082319;28;20049;-79
2023/01/17 12:57:51;;;;;;;2.92;1.02;;;4.60;99.90;;;;;;5076803;28;20048;-82
2023/01/17 13:00:21;;;;;;;6.90;1.40;;;4.50;99.90;;;;;;5076721;28;20048;-80
2023/01/17 13:02:57;;;;;;;2.53;1.20;;;4.30;99.90;;;;;;5074218;28;20037;-81
2023/01/17 13:05:40;;;;;;;5.35;1.23;;;4.40;99.90;;;;;;5075507;28;20048;-80
2023/01/17 13:08:40;;;;;;;3.28;1.73;;;4.40;99.90;;;;;;5075818;28;20072;-79
2023/01/17 13:11:40;;;;;;;2.00;0.90;;;4.70;99.90;;;;;;5063256;28;20415;-81
2023/01/17 13:14:08;;;;;;;2.78;1.10;;;5.00;99.90;;;;;;5076346;28;20059;-81
2023/01/17 13:16:56;;;;;;;2.38;1.00;;;5.00;99.90;;;;;;5059666;28;20072;-79
2023/01/17 13:19:41;;;;;;;2.72;1.02;;;5.20;99.90;;;;;;5058361;28;20613;-80
2023/01/17 13:22:16;;;;;;;2.45;1.00;;;5.30;99.90;;;;;;5057327;28;20125;-82
2023/01/17 13:25:19;;;;;;;2.90;0.80;;;5.20;99.90;;;;;;5075588;28;20037;-79
2023/01/17 13:28:00;;;;;;;3.22;1.08;;;4.90;99.90;;;;;;5073311;28;20087;-80
2023/01/17 13:31:05;;;;;;;2.53;0.80;;;4.90;99.90;;;;;;5078388;28;20112;-79
2023/01/17 13:34:04;;;;;;;5.07;1.23;;;4.80;99.90;;;;;;5070589;28;20084;-78
2023/01/17 13:36:49;;;;;;;2.33;0.85;;;4.50;99.90;;;;;;5078851;28;20115;-78
2023/01/17 13:39:38;;;;;;;2.15;1.15;;;4.60;99.90;;;;;;5080854;28;20072;-81
2023/01/17 13:42:37;;;;;;;1.67;0.90;;;4.60;99.90;;;;;;5080859;28;20037;-79
2023/01/17 13:45:19;;;;;;;2.28;0.93;;;4.50;99.90;;;;;;5079011;28;20057;-79
2023/01/17 13:47:45;;;;;;;4.78;1.17;;;4.40;99.90;;;;;;5080008;28;20475;-79
2023/01/17 13:50:39;;;;;;;3.67;0.95;;;4.40;99.90;;;;;;5079038;28;20451;-79
2023/01/17 13:53:27;;;;;;;2.75;1.30;;;4.40;99.90;;;;;;5079111;28;20114;-80
2023/01/17 13:56:10;;;;;;;1.70;0.95;;;4.50;99.90;;;;;;5059781;28;20080;-79
2023/01/17 13:58:57;;;;;;;2.28;0.90;;;4.60;99.90;;;;;;5076892;28;20040;-79
2023/01/17 14:01:22;;;;;;;2.45;0.95;;;4.70;99.90;;;;;;5105260;28;20044;-81
2023/01/17 14:03:48;;;;;;;4.03;1.75;;;4.80;99.90;;;;;;5078931;28;20038;-79
2023/01/17 14:06:54;;;;;;;1.83;0.93;;;4.80;99.90;;;;;;5077611;28;20044;-77
2023/01/17 14:09:27;;;;;;;2.78;1.00;;;4.70;99.90;;;;;;5071056;28;20105;-77
2023/01/17 14:12:13;;;;;;;2.00;0.95;;;4.60;99.90;;;;;;5078171;28;20056;-79
2023/01/17 14:14:39;;;;;;;2.90;0.80;;;4.50;99.90;;;;;;5078568;28;20109;-82
2023/01/17 14:17:27;;;;;;;2.58;0.90;;;4.40;99.90;;;;;;5079776;28;20044;-77
2023/01/17 14:19:54;;;;;;;3.17;0.90;;;4.30;99.90;;;;;;5079380;28;20056;-78
2023/01/17 14:22:20;;;;;;;2.85;1.15;;;4.50;99.90;;;;;;5077982;28;20044;-77
2023/01/17 14:25:04;;;;;;;2.85;0.98;;;4.50;99.90;;;;;;5078894;28;20154;-77
2023/01/17 14:27:35;;;;;;;2.47;0.98;;;4.50;99.90;;;;;;5078109;28;20374;-81
2023/01/17 14:30:15;;;;;;;2.33;0.70;;;4.40;99.90;;;;;;5079164;28;20048;-76
2023/01/17 14:32:41;;;;;;;2.63;1.02;;;4.40;99.90;;;;;;5077432;28;20056;-77
2023/01/17 14:35:21;;;;;;;2.60;0.88;;;4.50;99.90;;;;;;5063080;28;20187;-77
2023/01/17 14:37:51;;;;;;;3.22;1.20;;;5.20;99.90;;;;;;5078778;28;20056;-80
2023/01/17 14:40:24;;;;;;;2.50;0.95;;;4.60;99.90;;;;;;5077431;28;20040;-76
2023/01/17 14:43:11;;;;;;;3.15;0.90;;;4.60;99.90;;;;;;5078702;28;20055;-77
2023/01/17 14:45:38;;;;;;;1.58;0.73;;;4.70;99.90;;;;;;5077751;28;20057;-78
2023/01/17 14:48:06;;;;;;;2.97;1.40;;;4.70;99.90;;;;;;5080650;28;20637;-76
2023/01/17 14:50:37;;;;;;;2.13;0.80;;;4.60;99.90;;;;;;5078973;28;20055;-76